Time;durP1;ratioP1;P1;durP2;ratioP2;P2;SDS_P1;SDS_P2;PMS_P1;PMS_P2;Temp;Humidity;BMP_temperature;BMP_pressure;BME280_temperature;BME280_humidity;BME280_pressure;Samples;Min_cycle;Max_cycle;Signal;HPM_P1;HPM_P2
2022/08/02 00:02:27;;;;;;;;;;;;;;;;;;5031275;28;20026;-82
2022/08/02 00:05:14;;;;;;;;;;;;;;;;;;5031841;28;19909;-82
2022/08/02 00:08:00;;;;;;;;;;;;;;;;;;5025584;28;19923;-84
2022/08/02 00:10:46;;;;;;;;;;;;;;;;;;5030229;28;19916;-88
2022/08/02 00:13:33;;;;;;;;;;;;;;;;;;5030530;28;19920;-85
2022/08/02 00:16:19;;;;;;;;;;;;;;;;;;5030734;28;19917;-82
2022/08/02 00:19:06;;;;;;;;;;;;;;;;;;5012431;28;20363;-82
2022/08/02 00:21:52;;;;;;;;;;;;;;;;;;5029993;28;19913;-85
2022/08/02 00:24:39;;;;;;;;;;;;;;;;;;5030887;28;20337;-84
2022/08/02 00:27:25;;;;;;;;;;;;;;;;;;5028954;28;19913;-86
2022/08/02 00:30:12;;;;;;;;;;;;;;;;;;5032281;28;19909;-86
2022/08/02 00:32:58;;;;;;;;;;;;;;;;;;5003194;28;19913;-83
2022/08/02 00:35:48;;;;;;;;;;;;;;;;;;5023505;28;19925;-84
2022/08/02 00:38:34;;;;;;;;;;;;;;;;;;5027995;28;19913;-83
2022/08/02 00:41:21;;;;;;;;;;;;;;;;;;5026832;28;20350;-84
2022/08/02 00:44:07;;;;;;;;;;;;;;;;;;5017879;28;19921;-83
2022/08/02 00:46:53;;;;;;;;;;;;;;;;;;5032512;28;19917;-81
2022/08/02 00:49:40;;;;;;;;;;;;;;;;;;5026441;28;19913;-82
2022/08/02 00:52:26;;;;;;;;;;;;;;;;;;5030419;28;19923;-83
2022/08/02 00:55:13;;;;;;;;;;;;;;;;;;5031344;28;19909;-83
2022/08/02 00:57:59;;;;;;;;;;;;;;;;;;5031146;28;19914;-82
2022/08/02 01:00:46;;;;;;;;;;;;;;;;;;5026273;28;19909;-82
2022/08/02 01:03:32;;;;;;;;;;;;;;;;;;5030824;28;20411;-82
2022/08/02 01:06:19;;;;;;;;;;;;;;;;;;5023447;28;19935;-82
2022/08/02 01:09:05;;;;;;;;;;;;;;;;;;5029876;28;19925;-82
2022/08/02 01:11:52;;;;;;;;;;;;;;;;;;5013859;28;19913;-81
2022/08/02 01:14:38;;;;;;;;;;;;;;;;;;5021101;28;19909;-81
2022/08/02 01:17:25;;;;;;;;;;;;;;;;;;5024622;28;20377;-81
2022/08/02 01:20:11;;;;;;;;;;;;;;;;;;5026973;28;19910;-82
2022/08/02 01:22:57;;;;;;;;;;;;;;;;;;5029065;28;20380;-82
2022/08/02 01:25:44;;;;;;;;;;;;;;;;;;5029509;28;19914;-82
2022/08/02 01:28:30;;;;;;;;;;;;;;;;;;5017504;28;20281;-82
2022/08/02 01:31:17;;;;;;;;;;;;;;;;;;5006101;28;19913;-82
2022/08/02 01:34:03;;;;;;;;;;;;;;;;;;5029318;28;20293;-83
2022/08/02 01:36:50;;;;;;;;;;;;;;;;;;5015809;28;19910;-82
2022/08/02 01:39:36;;;;;;;;;;;;;;;;;;5029322;28;19936;-81
2022/08/02 01:42:23;;;;;;;;;;;;;;;;;;5028508;28;19951;-81
2022/08/02 01:45:09;;;;;;;;;;;;;;;;;;5027616;28;20332;-82
2022/08/02 01:47:56;;;;;;;;;;;;;;;;;;5028405;28;19924;-81
2022/08/02 01:50:42;;;;;;;;;;;;;;;;;;5010877;28;19913;-81
2022/08/02 01:53:29;;;;;;;;;;;;;;;;;;5027606;28;19915;-82
2022/08/02 01:56:15;;;;;;;;;;;;;;;;;;5016340;28;19947;-81
2022/08/02 01:59:01;;;;;;;;;;;;;;;;;;5001908;28;19909;-82
2022/08/02 02:01:48;;;;;;;;;;;;;;;;;;5025483;28;20411;-80
2022/08/02 02:04:34;;;;;;;;;;;;;;;;;;5020486;28;19917;-81
2022/08/02 02:07:21;;;;;;;;;;;;;;;;;;5014022;28;19928;-82
2022/08/02 02:10:07;;;;;;;;;;;;;;;;;;5014953;28;19921;-83
2022/08/02 02:12:54;;;;;;;;;;;;;;;;;;5024550;28;19920;-84
2022/08/02 02:15:40;;;;;;;;;;;;;;;;;;5020758;28;19931;-84
2022/08/02 02:18:27;;;;;;;;;;;;;;;;;;5029457;28;19921;-84
2022/08/02 02:21:13;;;;;;;;;;;;;;;;;;5020478;28;19924;-83
2022/08/02 02:24:00;;;;;;;;;;;;;;;;;;5015404;28;20404;-84
2022/08/02 02:26:46;;;;;;;;;;;;;;;;;;5029407;28;19913;-83
2022/08/02 02:29:33;;;;;;;;;;;;;;;;;;5025918;28;19909;-79
2022/08/02 02:32:19;;;;;;;;;;;;;;;;;;5028774;28;19939;-80
2022/08/02 02:35:06;;;;;;;;;;;;;;;;;;5034380;28;20307;-83
2022/08/02 02:37:52;;;;;;;;;;;;;;;;;;5015561;28;19924;-81
2022/08/02 02:40:38;;;;;;;;;;;;;;;;;;5029527;28;20266;-85
2022/08/02 02:43:25;;;;;;;;;;;;;;;;;;5031178;28;19927;-83
2022/08/02 02:46:12;;;;;;;;;;;;;;;;;;5025780;28;19913;-85
2022/08/02 02:48:58;;;;;;;;;;;;;;;;;;5027817;28;19913;-84
2022/08/02 02:51:45;;;;;;;;;;;;;;;;;;5027112;28;20361;-85
2022/08/02 02:54:31;;;;;;;;;;;;;;;;;;5016367;28;20324;-83
2022/08/02 02:57:18;;;;;;;;;;;;;;;;;;5021777;28;20411;-83
2022/08/02 03:00:04;;;;;;;;;;;;;;;;;;5020857;28;19920;-83
2022/08/02 03:02:51;;;;;;;;;;;;;;;;;;5026809;28;19917;-84
2022/08/02 03:05:37;;;;;;;;;;;;;;;;;;5028203;28;19948;-83
2022/08/02 03:08:24;;;;;;;;;;;;;;;;;;5024675;28;20580;-82
2022/08/02 03:11:10;;;;;;;;;;;;;;;;;;5031919;28;19913;-83
2022/08/02 03:13:57;;;;;;;;;;;;;;;;;;5028762;28;19913;-82
2022/08/02 03:16:45;;;;;;;;;;;;;;;;;;5034079;28;19910;-83
2022/08/02 03:19:32;;;;;;;;;;;;;;;;;;5024873;28;19909;-84
2022/08/02 03:22:18;;;;;;;;;;;;;;;;;;5017701;28;20257;-85
2022/08/02 03:25:05;;;;;;;;;;;;;;;;;;5029329;28;19924;-85
2022/08/02 03:27:51;;;;;;;;;;;;;;;;;;5033126;28;19920;-86
2022/08/02 03:30:37;;;;;;;;;;;;;;;;;;5029998;28;19920;-83
2022/08/02 03:33:24;;;;;;;;;;;;;;;;;;5029764;28;20578;-83
2022/08/02 03:36:11;;;;;;;;;;;;;;;;;;5013006;28;19916;-83
2022/08/02 03:38:57;;;;;;;;;;;;;;;;;;5031323;28;20294;-84
2022/08/02 03:41:44;;;;;;;;;;;;;;;;;;5033468;28;19909;-84
2022/08/02 03:44:30;;;;;;;;;;;;;;;;;;5038923;28;20274;-85
2022/08/02 03:47:16;;;;;;;;;;;;;;;;;;5045645;28;19917;-89
2022/08/02 03:50:03;;;;;;;;;;;;;;;;;;5033569;28;20354;-82
2022/08/02 03:52:49;;;;;;;;;;;;;;;;;;5028852;28;19919;-82
2022/08/02 03:55:36;;;;;;;;;;;;;;;;;;5031879;28;20344;-82
2022/08/02 03:58:22;;;;;;;;;;;;;;;;;;5032639;28;19945;-80
2022/08/02 04:01:09;;;;;;;;;;;;;;;;;;5025499;28;19912;-82
2022/08/02 04:03:55;;;;;;;;;;;;;;;;;;5031447;28;19917;-82
2022/08/02 04:06:42;;;;;;;;;;;;;;;;;;5031648;28;19922;-81
2022/08/02 04:09:28;;;;;;;;;;;;;;;;;;5028851;28;19910;-80
2022/08/02 04:12:15;;;;;;;;;;;;;;;;;;5028668;28;19909;-82
2022/08/02 04:15:01;;;;;;;;;;;;;;;;;;5028356;28;19913;-82
2022/08/02 04:17:48;;;;;;;;;;;;;;;;;;5027320;28;19920;-82
2022/08/02 04:20:34;;;;;;;;;;;;;;;;;;5027010;28;19917;-79
2022/08/02 04:23:21;;;;;;;;;;;;;;;;;;5029708;28;19921;-79
2022/08/02 04:26:07;;;;;;;;;;;;;;;;;;5014258;28;19913;-79
2022/08/02 04:28:54;;;;;;;;;;;;;;;;;;5030414;28;19919;-80
2022/08/02 04:31:40;;;;;;;;;;;;;;;;;;5025399;28;19916;-80
2022/08/02 04:34:27;;;;;;;;;;;;;;;;;;5027057;28;20027;-79
2022/08/02 04:37:13;;;;;;;;;;;;;;;;;;5026289;28;19917;-79
2022/08/02 04:40:00;;;;;;;;;;;;;;;;;;5026825;28;19919;-80
2022/08/02 04:42:46;;;;;;;;;;;;;;;;;;5028136;28;19914;-80
2022/08/02 04:45:33;;;;;;;;;;;;;;;;;;5025193;28;19909;-80
2022/08/02 04:48:19;;;;;;;;;;;;;;;;;;5030428;28;20361;-81
2022/08/02 04:51:06;;;;;;;;;;;;;;;;;;5028570;28;19917;-79
2022/08/02 04:53:52;;;;;;;;;;;;;;;;;;5027094;28;19910;-80
2022/08/02 04:56:39;;;;;;;;;;;;;;;;;;5014138;28;19914;-79
2022/08/02 04:59:25;;;;;;;;;;;;;;;;;;5025865;28;20452;-81
2022/08/02 05:02:12;;;;;;;;;;;;;;;;;;5022769;28;19913;-80
2022/08/02 05:04:58;;;;;;;;;;;;;;;;;;5029036;28;19913;-80
2022/08/02 05:07:45;;;;;;;;;;;;;;;;;;5006660;28;20027;-80
2022/08/02 05:10:31;;;;;;;;;;;;;;;;;;5008643;28;19917;-78
2022/08/02 05:13:18;;;;;;;;;;;;;;;;;;5010240;28;19932;-79
2022/08/02 05:16:04;;;;;;;;;;;;;;;;;;5007697;28;19929;-78
2022/08/02 05:18:51;;;;;;;;;;;;;;;;;;5007002;28;19923;-81
2022/08/02 05:21:37;;;;;;;;;;;;;;;;;;5003466;28;19914;-81
2022/08/02 05:24:23;;;;;;;;;;;;;;;;;;5007918;28;19917;-82
2022/08/02 05:27:10;;;;;;;;;;;;;;;;;;5005652;28;19932;-80
2022/08/02 05:29:57;;;;;;;;;;;;;;;;;;5004595;28;19920;-81
2022/08/02 05:32:43;;;;;;;;;;;;;;;;;;5007398;28;20290;-80
2022/08/02 05:35:30;;;;;;;;;;;;;;;;;;5012164;28;19935;-81
2022/08/02 05:38:16;;;;;;;;;;;;;;;;;;5010626;28;20096;-83
2022/08/02 05:41:02;;;;;;;;;;;;;;;;;;5004385;28;19920;-82
2022/08/02 05:43:49;;;;;;;;;;;;;;;;;;5009744;28;19929;-83
2022/08/02 05:46:36;;;;;;;;;;;;;;;;;;5008495;28;19921;-83
2022/08/02 05:49:23;;;;;;;;;;;;;;;;;;5007745;28;19909;-83
2022/08/02 05:52:09;;;;;;;;;;;;;;;;;;5011429;28;19917;-82
2022/08/02 05:54:56;;;;;;;;;;;;;;;;;;5006371;28;19916;-83
2022/08/02 05:57:42;;;;;;;;;;;;;;;;;;5009695;28;20283;-82
2022/08/02 06:00:29;;;;;;;;;;;;;;;;;;5009801;28;19916;-82
2022/08/02 06:03:15;;;;;;;;;;;;;;;;;;5005458;28;19937;-84
2022/08/02 06:06:02;;;;;;;;;;;;;;;;;;5007437;28;19924;-82
2022/08/02 06:08:48;;;;;;;;;;;;;;;;;;5008337;28;19922;-82
2022/08/02 06:11:35;;;;;;;;;;;;;;;;;;5001918;28;19918;-82
2022/08/02 06:14:21;;;;;;;;;;;;;;;;;;5003121;28;19909;-80
2022/08/02 06:17:08;;;;;;;;;;;;;;;;;;5006489;28;20384;-82
2022/08/02 06:20:00;;;;;;;;;;;;;;;;;;5008180;28;20288;-82
2022/08/02 06:22:46;;;;;;;;;;;;;;;;;;4995140;28;19924;-81
2022/08/02 06:25:33;;;;;;;;;;;;;;;;;;5009673;28;19929;-80
2022/08/02 06:28:19;;;;;;;;;;;;;;;;;;5004188;28;19989;-82
2022/08/02 06:31:06;;;;;;;;;;;;;;;;;;5004582;28;19920;-81
2022/08/02 06:33:52;;;;;;;;;;;;;;;;;;4997218;28;19910;-81
2022/08/02 06:36:39;;;;;;;;;;;;;;;;;;5000586;28;19918;-81
2022/08/02 06:39:26;;;;;;;;;;;;;;;;;;5000522;28;19920;-80
2022/08/02 06:42:13;;;;;;;;;;;;;;;;;;5006849;28;19913;-82
2022/08/02 06:44:59;;;;;;;;;;;;;;;;;;5005548;28;19922;-82
2022/08/02 06:47:46;;;;;;;;;;;;;;;;;;5002010;28;20289;-82
2022/08/02 06:50:33;;;;;;;;;;;;;;;;;;5005822;28;19910;-83
2022/08/02 06:53:19;;;;;;;;;;;;;;;;;;5002863;28;19918;-82
2022/08/02 06:56:06;;;;;;;;;;;;;;;;;;4995596;28;19910;-81
2022/08/02 06:58:52;;;;;;;;;;;;;;;;;;5002553;28;19917;-80
2022/08/02 07:01:39;;;;;;;;;;;;;;;;;;5005739;28;20255;-82
2022/08/02 07:04:25;;;;;;;;;;;;;;;;;;5010598;28;19925;-85
2022/08/02 07:07:12;;;;;;;;;;;;;;;;;;5003987;28;20376;-82
2022/08/02 07:09:58;;;;;;;;;;;;;;;;;;5008489;28;19910;-82
2022/08/02 07:12:45;;;;;;;;;;;;;;;;;;5008742;28;19920;-80
2022/08/02 07:15:31;;;;;;;;;;;;;;;;;;5003053;28;19909;-84
2022/08/02 07:18:18;;;;;;;;;;;;;;;;;;5012583;28;19913;-84
2022/08/02 07:21:05;;;;;;;;;;;;;;;;;;5007351;28;19921;-83
2022/08/02 07:23:51;;;;;;;;;;;;;;;;;;5001348;28;19918;-83
2022/08/02 07:26:37;;;;;;;;;;;;;;;;;;5001481;28;19928;-80
2022/08/02 07:29:24;;;;;;;;;;;;;;;;;;5008321;28;19920;-80
2022/08/02 07:32:10;;;;;;;;;;;;;;;;;;4999998;28;19921;-83
2022/08/02 07:34:57;;;;;;;;;;;;;;;;;;5008887;28;19918;-88
2022/08/02 07:37:45;;;;;;;;;;;;;;;;;;5010611;28;19933;-83
2022/08/02 07:40:31;;;;;;;;;;;;;;;;;;5010871;28;19914;-85
2022/08/02 07:43:18;;;;;;;;;;;;;;;;;;5004115;28;20381;-84
2022/08/02 07:46:04;;;;;;;;;;;;;;;;;;5004070;28;19914;-83
2022/08/02 07:48:53;;;;;;;;;;;;;;;;;;5005521;28;20423;-85
2022/08/02 07:51:39;;;;;;;;;;;;;;;;;;5007104;28;19968;-83
2022/08/02 07:54:26;;;;;;;;;;;;;;;;;;5009195;28;20621;-78
2022/08/02 07:57:12;;;;;;;;;;;;;;;;;;5008554;28;19909;-77
2022/08/02 07:59:59;;;;;;;;;;;;;;;;;;5006255;28;19936;-76
2022/08/02 08:02:46;;;;;;;;;;;;;;;;;;5008582;28;19917;-77
2022/08/02 08:05:32;;;;;;;;;;;;;;;;;;5009923;28;20277;-74
2022/08/02 08:08:19;;;;;;;;;;;;;;;;;;5007867;28;19917;-77
2022/08/02 08:11:05;;;;;;;;;;;;;;;;;;5008896;28;20496;-77
2022/08/02 08:13:52;;;;;;;;;;;;;;;;;;5010436;28;19914;-76
2022/08/02 08:16:38;;;;;;;;;;;;;;;;;;5008186;28;19909;-78
2022/08/02 08:19:25;;;;;;;;;;;;;;;;;;5009584;28;19917;-79
2022/08/02 08:22:11;;;;;;;;;;;;;;;;;;5009455;28;19919;-79
2022/08/02 08:24:57;;;;;;;;;;;;;;;;;;5007745;28;19929;-79
2022/08/02 08:27:44;;;;;;;;;;;;;;;;;;4998616;28;20376;-85
2022/08/02 08:30:31;;;;;;;;;;;;;;;;;;5008650;28;19913;-78
2022/08/02 08:33:18;;;;;;;;;;;;;;;;;;5010978;28;19918;-84
2022/08/02 08:36:04;;;;;;;;;;;;;;;;;;5008351;28;19917;-80
2022/08/02 08:38:51;;;;;;;;;;;;;;;;;;5009038;28;19932;-80
2022/08/02 08:41:37;;;;;;;;;;;;;;;;;;5012041;28;19920;-84
2022/08/02 08:44:26;;;;;;;;;;;;;;;;;;5013063;28;19945;-83
2022/08/02 08:47:12;;;;;;;;;;;;;;;;;;5013118;28;20245;-80
2022/08/02 08:49:58;;;;;;;;;;;;;;;;;;5009870;28;19913;-78
2022/08/02 08:52:45;;;;;;;;;;;;;;;;;;4999602;28;20370;-82
2022/08/02 08:55:31;;;;;;;;;;;;;;;;;;5011060;28;19910;-80
2022/08/02 08:58:18;;;;;;;;;;;;;;;;;;5005958;28;20301;-81
2022/08/02 09:01:04;;;;;;;;;;;;;;;;;;5012042;28;19913;-85
2022/08/02 09:03:51;;;;;;;;;;;;;;;;;;5010948;28;20361;-82
2022/08/02 09:06:37;;;;;;;;;;;;;;;;;;5008323;28;19929;-86
2022/08/02 09:09:24;;;;;;;;;;;;;;;;;;5002720;28;20316;-88
2022/08/02 09:12:10;;;;;;;;;;;;;;;;;;5012347;28;19915;-87
2022/08/02 09:14:57;;;;;;;;;;;;;;;;;;5011477;28;19914;-82
2022/08/02 09:17:43;;;;;;;;;;;;;;;;;;5008786;28;19914;-81
2022/08/02 09:20:30;;;;;;;;;;;;;;;;;;5004085;28;19917;-81
2022/08/02 09:23:17;;;;;;;;;;;;;;;;;;5006372;28;19923;-80
2022/08/02 09:26:04;;;;;;;;;;;;;;;;;;5004195;28;19917;-81
2022/08/02 09:28:51;;;;;;;;;;;;;;;;;;5004022;28;20314;-79
2022/08/02 09:31:37;;;;;;;;;;;;;;;;;;5008162;28;19921;-78
2022/08/02 09:34:24;;;;;;;;;;;;;;;;;;4991236;28;19917;-77
2022/08/02 09:37:11;;;;;;;;;;;;;;;;;;5004321;28;20019;-77
2022/08/02 09:40:02;;;;;;;;;;;;;;;;;;5006080;28;20095;-76
2022/08/02 09:42:48;;;;;;;;;;;;;;;;;;5006320;28;19917;-77
2022/08/02 09:45:35;;;;;;;;;;;;;;;;;;5007870;28;19917;-77
2022/08/02 09:48:21;;;;;;;;;;;;;;;;;;5006879;28;19920;-78
2022/08/02 09:51:08;;;;;;;;;;;;;;;;;;5007814;28;19918;-79
2022/08/02 09:53:54;;;;;;;;;;;;;;;;;;5004850;28;19914;-78
2022/08/02 09:56:41;;;;;;;;;;;;;;;;;;5006843;28;20393;-75
2022/08/02 09:59:27;;;;;;;;;;;;;;;;;;5007082;28;20318;-75
2022/08/02 10:02:13;;;;;;;;;;;;;;;;;;5007252;28;19913;-75
2022/08/02 10:05:00;;;;;;;;;;;;;;;;;;5007951;28;19925;-76
2022/08/02 10:07:46;;;;;;;;;;;;;;;;;;5005429;28;19932;-76
2022/08/02 10:10:33;;;;;;;;;;;;;;;;;;5003626;28;19916;-76
2022/08/02 10:13:19;;;;;;;;;;;;;;;;;;5007112;28;20370;-76
2022/08/02 10:16:06;;;;;;;;;;;;;;;;;;5009107;28;19910;-75
2022/08/02 10:19:00;;;;;;;;;;;;;;;;;;5005899;28;19948;-78
2022/08/02 10:21:47;;;;;;;;;;;;;;;;;;5007043;28;19918;-75
2022/08/02 10:24:33;;;;;;;;;;;;;;;;;;5003099;28;19925;-81
2022/08/02 10:27:20;;;;;;;;;;;;;;;;;;5000474;28;19918;-82
2022/08/02 10:30:07;;;;;;;;;;;;;;;;;;4992769;28;19916;-84
2022/08/02 10:32:54;;;;;;;;;;;;;;;;;;5001312;28;19913;-81
2022/08/02 10:35:40;;;;;;;;;;;;;;;;;;4985524;28;19909;-85
2022/08/02 10:38:27;;;;;;;;;;;;;;;;;;4994439;28;20389;-77
2022/08/02 10:41:14;;;;;;;;;;;;;;;;;;4989324;28;20602;-78
2022/08/02 10:44:00;;;;;;;;;;;;;;;;;;5002859;28;20416;-78
2022/08/02 10:46:46;;;;;;;;;;;;;;;;;;5006946;28;19910;-79
2022/08/02 10:49:33;;;;;;;;;;;;;;;;;;4999359;28;19914;-75
2022/08/02 10:52:19;;;;;;;;;;;;;;;;;;5007013;28;20384;-78
2022/08/02 10:55:06;;;;;;;;;;;;;;;;;;5007182;28;19917;-77
2022/08/02 10:57:52;;;;;;;;;;;;;;;;;;4998524;28;20285;-78
2022/08/02 11:00:39;;;;;;;;;;;;;;;;;;5005533;28;19910;-80
2022/08/02 11:03:25;;;;;;;;;;;;;;;;;;5005179;28;19921;-78
2022/08/02 11:06:12;;;;;;;;;;;;;;;;;;4997449;28;19918;-79
2022/08/02 11:08:58;;;;;;;;;;;;;;;;;;5006570;28;19917;-79
2022/08/02 11:11:45;;;;;;;;;;;;;;;;;;4999842;28;19913;-78
2022/08/02 11:14:31;;;;;;;;;;;;;;;;;;5005451;28;20550;-79
2022/08/02 11:17:18;;;;;;;;;;;;;;;;;;5000533;28;19910;-78
2022/08/02 11:20:04;;;;;;;;;;;;;;;;;;5004957;28;19914;-76
2022/08/02 11:22:51;;;;;;;;;;;;;;;;;;4998325;28;19965;-80
2022/08/02 11:25:37;;;;;;;;;;;;;;;;;;5002762;28;19918;-78
2022/08/02 11:28:24;;;;;;;;;;;;;;;;;;5006098;28;19920;-81
2022/08/02 11:31:10;;;;;;;;;;;;;;;;;;5010284;28;19916;-81
2022/08/02 11:33:57;;;;;;;;;;;;;;;;;;5009415;28;19913;-82
2022/08/02 11:36:44;;;;;;;;;;;;;;;;;;5009711;28;19918;-85
2022/08/02 11:39:30;;;;;;;;;;;;;;;;;;5009937;28;20270;-84
2022/08/02 11:42:17;;;;;;;;;;;;;;;;;;5007545;28;19921;-84
2022/08/02 11:45:03;;;;;;;;;;;;;;;;;;5002497;28;19929;-84
2022/08/02 11:47:49;;;;;;;;;;;;;;;;;;5002000;28;19914;-83
2022/08/02 11:50:36;;;;;;;;;;;;;;;;;;5006004;28;19920;-84
2022/08/02 11:53:22;;;;;;;;;;;;;;;;;;5004069;28;19933;-85
2022/08/02 11:56:09;;;;;;;;;;;;;;;;;;5008330;28;19921;-85
2022/08/02 11:58:55;;;;;;;;;;;;;;;;;;5008814;28;20286;-85
2022/08/02 12:01:42;;;;;;;;;;;;;;;;;;5008678;28;19924;-85
2022/08/02 12:04:28;;;;;;;;;;;;;;;;;;5011287;28;20362;-85
2022/08/02 12:07:15;;;;;;;;;;;;;;;;;;5005121;28;19931;-84
2022/08/02 12:10:01;;;;;;;;;;;;;;;;;;5005781;28;19910;-85
2022/08/02 12:12:48;;;;;;;;;;;;;;;;;;5009422;28;19918;-84
2022/08/02 12:15:36;;;;;;;;;;;;;;;;;;5006850;28;20288;-85
2022/08/02 12:21:27;;;;;;;;;;;;;;;;;;5005478;28;19924;-86
2022/08/02 12:24:13;;;;;;;;;;;;;;;;;;5001207;28;19929;-86
2022/08/02 12:27:00;;;;;;;;;;;;;;;;;;5008094;28;19925;-84
2022/08/02 12:29:47;;;;;;;;;;;;;;;;;;5006664;28;19933;-85
2022/08/02 12:32:33;;;;;;;;;;;;;;;;;;4999714;28;19913;-86
2022/08/02 12:35:20;;;;;;;;;;;;;;;;;;5006966;28;19920;-87
2022/08/02 12:38:06;;;;;;;;;;;;;;;;;;5009763;28;19928;-85
2022/08/02 12:40:53;;;;;;;;;;;;;;;;;;5007277;28;19918;-85
2022/08/02 12:43:39;;;;;;;;;;;;;;;;;;5008868;28;19920;-83
2022/08/02 12:46:26;;;;;;;;;;;;;;;;;;5004597;28;19914;-85
2022/08/02 12:49:12;;;;;;;;;;;;;;;;;;5010998;28;19919;-85
2022/08/02 12:51:59;;;;;;;;;;;;;;;;;;5006608;28;19917;-86
2022/08/02 12:54:47;;;;;;;;;;;;;;;;;;5005805;28;19920;-86
2022/08/02 12:57:34;;;;;;;;;;;;;;;;;;5005320;28;19917;-85
2022/08/02 13:00:20;;;;;;;;;;;;;;;;;;5004642;28;20408;-85
2022/08/02 13:03:07;;;;;;;;;;;;;;;;;;5011337;28;19920;-85
2022/08/02 13:05:53;;;;;;;;;;;;;;;;;;5012853;28;19921;-84
2022/08/02 13:08:40;;;;;;;;;;;;;;;;;;5009240;28;19928;-85
2022/08/02 13:11:26;;;;;;;;;;;;;;;;;;5007463;28;20370;-86
2022/08/02 13:14:13;;;;;;;;;;;;;;;;;;5014982;28;19920;-87
2022/08/02 13:16:59;;;;;;;;;;;;;;;;;;5004299;28;20017;-86
2022/08/02 13:19:46;;;;;;;;;;;;;;;;;;5013612;28;19914;-86
2022/08/02 13:22:33;;;;;;;;;;;;;;;;;;5008663;28;19925;-86
2022/08/02 13:25:21;;;;;;;;;;;;;;;;;;5002784;28;20016;-86
2022/08/02 13:28:08;;;;;;;;;;;;;;;;;;5010464;28;19932;-86
2022/08/02 13:30:54;;;;;;;;;;;;;;;;;;5003101;28;19909;-86
2022/08/02 13:33:40;;;;;;;;;;;;;;;;;;5003794;28;19910;-86
2022/08/02 13:36:27;;;;;;;;;;;;;;;;;;4999213;28;19914;-86
2022/08/02 13:39:13;;;;;;;;;;;;;;;;;;5008607;28;19910;-86
2022/08/02 13:42:00;;;;;;;;;;;;;;;;;;5009795;28;19936;-85
2022/08/02 13:44:46;;;;;;;;;;;;;;;;;;5008408;28;19921;-84
2022/08/02 13:47:33;;;;;;;;;;;;;;;;;;5007873;28;20365;-85
2022/08/02 13:50:19;;;;;;;;;;;;;;;;;;5001901;28;19924;-86
2022/08/02 13:53:06;;;;;;;;;;;;;;;;;;4998632;28;20278;-85
2022/08/02 13:55:52;;;;;;;;;;;;;;;;;;5009624;28;19920;-86
2022/08/02 13:58:39;;;;;;;;;;;;;;;;;;5001548;28;19919;-86
2022/08/02 14:01:25;;;;;;;;;;;;;;;;;;5008276;28;20008;-85
2022/08/02 14:04:12;;;;;;;;;;;;;;;;;;5004968;28;19933;-86
2022/08/02 14:06:58;;;;;;;;;;;;;;;;;;5006741;28;19929;-85
2022/08/02 14:09:45;;;;;;;;;;;;;;;;;;5006347;28;19913;-85
2022/08/02 14:12:31;;;;;;;;;;;;;;;;;;5010298;28;19917;-84
2022/08/02 14:15:18;;;;;;;;;;;;;;;;;;5003938;28;19913;-85
2022/08/02 14:18:04;;;;;;;;;;;;;;;;;;5006407;28;19917;-85
2022/08/02 14:20:50;;;;;;;;;;;;;;;;;;5020159;28;19913;-90
2022/08/02 14:23:37;;;;;;;;;;;;;;;;;;5014616;28;19940;-88
2022/08/02 14:26:23;;;;;;;;;;;;;;;;;;5018125;28;19913;-80
2022/08/02 14:29:10;;;;;;;;;;;;;;;;;;5023389;28;19917;-80
2022/08/02 14:31:56;;;;;;;;;;;;;;;;;;5018313;28;19916;-80
2022/08/02 14:34:43;;;;;;;;;;;;;;;;;;5007089;28;19917;-83
2022/08/02 14:37:29;;;;;;;;;;;;;;;;;;5018605;28;19950;-79
2022/08/02 14:40:16;;;;;;;;;;;;;;;;;;5019802;28;19917;-79
2022/08/02 14:43:02;;;;;;;;;;;;;;;;;;5006949;28;19921;-80
2022/08/02 14:45:49;;;;;;;;;;;;;;;;;;5022580;28;20441;-79
2022/08/02 14:48:35;;;;;;;;;;;;;;;;;;5019393;28;19920;-79
2022/08/02 14:51:22;;;;;;;;;;;;;;;;;;5020698;28;19940;-79
2022/08/02 14:54:09;;;;;;;;;;;;;;;;;;5019732;28;20330;-79
2022/08/02 14:56:55;;;;;;;;;;;;;;;;;;5015260;28;19917;-80
2022/08/02 14:59:42;;;;;;;;;;;;;;;;;;5020810;28;19913;-82
2022/08/02 15:02:28;;;;;;;;;;;;;;;;;;5024504;28;19919;-80
2022/08/02 15:05:15;;;;;;;;;;;;;;;;;;5023330;28;19922;-80
2022/08/02 15:08:01;;;;;;;;;;;;;;;;;;4999921;28;19976;-79
2022/08/02 15:10:48;;;;;;;;;;;;;;;;;;5001765;28;19921;-80
2022/08/02 15:13:35;;;;;;;;;;;;;;;;;;5004992;28;19917;-81
2022/08/02 15:16:21;;;;;;;;;;;;;;;;;;5002592;28;19913;-79
2022/08/02 15:19:08;;;;;;;;;;;;;;;;;;5000290;28;19928;-80
2022/08/02 15:21:54;;;;;;;;;;;;;;;;;;4993680;28;19921;-80
2022/08/02 15:24:41;;;;;;;;;;;;;;;;;;5001745;28;19925;-81
2022/08/02 15:27:27;;;;;;;;;;;;;;;;;;5003916;28;19913;-80
2022/08/02 15:30:14;;;;;;;;;;;;;;;;;;5004870;28;20376;-80
2022/08/02 15:33:00;;;;;;;;;;;;;;;;;;5001648;28;20380;-80
2022/08/02 15:35:46;;;;;;;;;;;;;;;;;;5002631;28;19920;-80
2022/08/02 15:38:33;;;;;;;;;;;;;;;;;;5001360;28;20658;-79
2022/08/02 15:41:20;;;;;;;;;;;;;;;;;;5001173;28;19921;-80
2022/08/02 15:44:06;;;;;;;;;;;;;;;;;;4999400;28;19931;-80
2022/08/02 15:46:53;;;;;;;;;;;;;;;;;;4999273;28;19925;-80
2022/08/02 15:49:39;;;;;;;;;;;;;;;;;;4991218;28;20330;-82
2022/08/02 15:52:26;;;;;;;;;;;;;;;;;;5000994;28;19917;-82
2022/08/02 15:55:12;;;;;;;;;;;;;;;;;;4991715;28;20433;-82
2022/08/02 15:57:58;;;;;;;;;;;;;;;;;;4999117;28;19921;-82
2022/08/02 16:00:45;;;;;;;;;;;;;;;;;;5004095;28;19914;-85
2022/08/02 16:03:31;;;;;;;;;;;;;;;;;;5002643;28;19914;-82
2022/08/02 16:06:18;;;;;;;;;;;;;;;;;;5008118;28;19932;-82
2022/08/02 16:09:04;;;;;;;;;;;;;;;;;;5018413;28;19937;-80
2022/08/02 16:11:51;;;;;;;;;;;;;;;;;;5019981;28;20270;-81
2022/08/02 16:14:37;;;;;;;;;;;;;;;;;;5021396;28;19913;-82
2022/08/02 16:17:24;;;;;;;;;;;;;;;;;;5025431;28;19924;-81
2022/08/02 16:20:10;;;;;;;;;;;;;;;;;;5025086;28;19921;-80
2022/08/02 16:22:57;;;;;;;;;;;;;;;;;;5024536;28;20073;-82
2022/08/02 16:25:44;;;;;;;;;;;;;;;;;;5014173;28;19933;-82
2022/08/02 16:28:31;;;;;;;;;;;;;;;;;;5023760;28;19917;-80
2022/08/02 16:31:17;;;;;;;;;;;;;;;;;;5024927;28;19920;-81
2022/08/02 16:34:04;;;;;;;;;;;;;;;;;;5012902;28;19913;-82
2022/08/02 16:36:51;;;;;;;;;;;;;;;;;;5021007;28;19921;-81
2022/08/02 16:39:37;;;;;;;;;;;;;;;;;;5025731;28;19920;-80
2022/08/02 16:42:24;;;;;;;;;;;;;;;;;;5026847;28;19965;-80
2022/08/02 16:45:10;;;;;;;;;;;;;;;;;;5024660;28;19932;-81
2022/08/02 16:47:57;;;;;;;;;;;;;;;;;;5025865;28;19920;-80
2022/08/02 16:50:43;;;;;;;;;;;;;;;;;;5024586;28;20348;-81
2022/08/02 16:53:30;;;;;;;;;;;;;;;;;;5021099;28;19917;-82
2022/08/02 16:56:16;;;;;;;;;;;;;;;;;;5025990;28;19913;-83
2022/08/02 16:59:03;;;;;;;;;;;;;;;;;;5010487;28;20458;-82
2022/08/02 17:01:49;;;;;;;;;;;;;;;;;;5023973;28;19920;-83
2022/08/02 17:04:36;;;;;;;;;;;;;;;;;;5007300;28;20036;-82
2022/08/02 17:07:22;;;;;;;;;;;;;;;;;;5021854;28;19948;-82
2022/08/02 17:10:09;;;;;;;;;;;;;;;;;;5023806;28;19913;-83
2022/08/02 17:12:55;;;;;;;;;;;;;;;;;;5024219;28;20369;-82
2022/08/02 17:15:42;;;;;;;;;;;;;;;;;;5023538;28;19917;-83
2022/08/02 17:18:28;;;;;;;;;;;;;;;;;;5021636;28;19913;-82
2022/08/02 17:21:15;;;;;;;;;;;;;;;;;;5027301;28;20319;-82
2022/08/02 17:24:01;;;;;;;;;;;;;;;;;;5022403;28;19928;-83
2022/08/02 17:26:47;;;;;;;;;;;;;;;;;;5026150;28;20318;-82
2022/08/02 17:29:34;;;;;;;;;;;;;;;;;;5020460;28;19913;-82
2022/08/02 17:32:20;;;;;;;;;;;;;;;;;;5019821;28;20305;-82
2022/08/02 17:35:07;;;;;;;;;;;;;;;;;;5022494;28;19920;-82
2022/08/02 17:37:53;;;;;;;;;;;;;;;;;;5019384;28;19936;-82
2022/08/02 17:40:40;;;;;;;;;;;;;;;;;;5026075;28;19913;-81
2022/08/02 17:43:26;;;;;;;;;;;;;;;;;;5024346;28;19913;-82
2022/08/02 17:46:13;;;;;;;;;;;;;;;;;;5022318;28;19927;-83
2022/08/02 17:49:15;;;;;;;;;;;;;;;;;;5015323;28;20561;-82
2022/08/02 17:52:01;;;;;;;;;;;;;;;;;;5024714;28;19913;-82
2022/08/02 17:54:48;;;;;;;;;;;;;;;;;;5023187;28;19919;-83
2022/08/02 17:57:34;;;;;;;;;;;;;;;;;;5029342;28;19913;-82
2022/08/02 18:00:21;;;;;;;;;;;;;;;;;;5046178;28;19909;-81
2022/08/02 18:03:07;;;;;;;;;;;;;;;;;;5042011;28;19913;-80
2022/08/02 18:05:54;;;;;;;;;;;;;;;;;;5046413;28;19933;-82
2022/08/02 18:08:40;;;;;;;;;;;;;;;;;;5042963;28;20373;-83
2022/08/02 18:11:27;;;;;;;;;;;;;;;;;;5031055;28;19913;-83
2022/08/02 18:14:14;;;;;;;;;;;;;;;;;;5056864;28;19921;-84
2022/08/02 18:17:03;;;;;;;;;;;;;;;;;;5049963;28;19927;-83
2022/08/02 18:19:50;;;;;;;;;;;;;;;;;;5051560;28;19987;-85
2022/08/02 18:22:37;;;;;;;;;;;;;;;;;;5060431;28;19940;-84
2022/08/02 18:25:23;;;;;;;;;;;;;;;;;;5055747;28;19917;-83
2022/08/02 18:28:10;;;;;;;;;;;;;;;;;;5051280;28;19909;-83
2022/08/02 18:30:56;;;;;;;;;;;;;;;;;;5052028;28;19914;-82
2022/08/02 18:33:43;;;;;;;;;;;;;;;;;;5046862;28;19919;-83
2022/08/02 18:36:29;;;;;;;;;;;;;;;;;;5044703;28;19913;-83
2022/08/02 18:39:16;;;;;;;;;;;;;;;;;;5062402;28;19916;-82
2022/08/02 18:42:02;;;;;;;;;;;;;;;;;;5038718;28;19917;-82
2022/08/02 18:44:48;;;;;;;;;;;;;;;;;;5054700;28;19921;-82
2022/08/02 18:47:35;;;;;;;;;;;;;;;;;;5043195;28;19905;-82
2022/08/02 18:50:22;;;;;;;;;;;;;;;;;;5045970;28;19917;-82
2022/08/02 18:53:08;;;;;;;;;;;;;;;;;;5052961;28;19917;-82
2022/08/02 18:55:55;;;;;;;;;;;;;;;;;;5045202;28;19908;-83
2022/08/02 18:58:41;;;;;;;;;;;;;;;;;;5050262;28;19936;-83
2022/08/02 19:01:28;;;;;;;;;;;;;;;;;;5048676;28;20000;-82